In Rescue
 
Open Full Screen Window  High Contrast Mode
Wind Gusting 00 knots
06
June 26, 2019 9:59 PM EDT
Weather Information
Wind Direction
  210 °
Wind Speed
  06 kt (7 mph)
Wind Gust
  00 kt (0 mph)
Altimeter
30.11 in
Visibility
10 SM
Temperature
27° C
81° F
Dewpoint
17° C
63° F
Humidity
54%
Sky Condition
Broken @ 10,000 ft
Broken @ 8,000 ft
Scattered @ 7,000 ft
VFR

METAR KAXV 270159Z AUTO 21006KT 10SM SCT070 BKN080 BKN100 27/17 A3011 RMK AO2

FAA Disclaimer: The data displayed is for advisory purposes only and is not to be used for flight planning or operations.